createdAt,value
2023-05-19T00:00:58.358Z,25.00
2023-05-19T00:01:58.377Z,0.00
2023-05-19T00:02:58.406Z,0.00
2023-05-19T00:03:58.326Z,0.00
2023-05-19T00:04:58.312Z,0.00
2023-05-19T00:05:58.387Z,0.00
2023-05-19T00:06:58.294Z,0.00
2023-05-19T00:07:58.289Z,0.00
2023-05-19T00:08:58.274Z,0.00
2023-05-19T00:09:58.270Z,13.13
2023-05-19T00:10:58.274Z,25.00
2023-05-19T00:11:58.309Z,25.00
2023-05-19T00:12:58.266Z,25.00
2023-05-19T00:13:59.119Z,24.89
2023-05-19T00:14:58.234Z,25.83
2023-05-19T00:15:58.258Z,25.55
2023-05-19T00:16:58.223Z,28.19
2023-05-19T00:17:58.313Z,25.97
2023-05-19T00:18:58.240Z,28.60
2023-05-19T00:19:58.196Z,24.34
2023-05-19T00:20:58.200Z,26.73
2023-05-19T00:21:58.178Z,27.33
2023-05-19T00:22:58.179Z,26.09
2023-05-19T00:23:58.155Z,26.13
2023-05-19T00:24:58.136Z,25.21
2023-05-19T00:25:58.133Z,27.80
2023-05-19T00:26:58.108Z,25.47
2023-05-19T00:27:58.149Z,26.97
2023-05-19T00:28:58.130Z,25.36
2023-05-19T00:29:58.155Z,25.61
2023-05-19T00:30:58.161Z,26.20
2023-05-19T00:31:58.217Z,25.00
2023-05-19T00:32:58.217Z,25.78
2023-05-19T00:33:58.206Z,26.35
2023-05-19T00:34:58.227Z,25.80
2023-05-19T00:35:58.242Z,25.46
2023-05-19T00:36:58.250Z,25.00
2023-05-19T00:37:58.270Z,26.51
2023-05-19T00:38:58.296Z,27.35
2023-05-19T00:39:58.291Z,26.93
2023-05-19T00:40:58.317Z,26.42
2023-05-19T00:41:58.325Z,25.84
2023-05-19T00:42:58.344Z,25.65
2023-05-19T00:43:58.446Z,27.02
2023-05-19T00:44:58.371Z,27.13
2023-05-19T00:45:58.389Z,26.21
2023-05-19T00:46:58.488Z,25.72
2023-05-19T00:47:58.488Z,28.27
2023-05-19T00:48:58.443Z,27.65
2023-05-19T00:49:58.491Z,28.17
2023-05-19T00:50:58.494Z,26.83
2023-05-19T00:51:58.486Z,26.84
2023-05-19T00:52:58.511Z,25.02
2023-05-19T00:53:58.524Z,25.26
2023-05-19T00:54:58.522Z,28.97
2023-05-19T00:55:58.545Z,25.33
2023-05-19T00:56:58.562Z,27.24
2023-05-19T00:57:58.584Z,25.61
2023-05-19T00:58:58.605Z,25.00
2023-05-19T00:59:58.667Z,27.95
2023-05-19T01:00:58.704Z,25.75
2023-05-19T01:01:58.656Z,27.12
2023-05-19T01:02:58.747Z,26.82
2023-05-19T01:03:58.925Z,26.21
2023-05-19T01:04:58.685Z,27.91
2023-05-19T01:05:58.697Z,26.00
2023-05-19T01:06:58.712Z,27.92
2023-05-19T01:07:58.743Z,26.17
2023-05-19T01:08:58.738Z,26.06
2023-05-19T01:09:58.760Z,25.46
2023-05-19T01:10:58.760Z,25.00
2023-05-19T01:11:58.770Z,26.92
2023-05-19T01:12:58.790Z,26.71
2023-05-19T01:13:58.798Z,26.87
2023-05-19T01:14:58.822Z,25.86
2023-05-19T01:15:58.970Z,26.32
2023-05-19T01:16:58.925Z,27.94
2023-05-19T01:17:58.848Z,27.34
2023-05-19T01:18:58.883Z,25.97
2023-05-19T01:19:58.866Z,26.63
2023-05-19T01:20:58.881Z,26.40
2023-05-19T01:21:58.901Z,26.57
2023-05-19T01:22:58.904Z,27.31
2023-05-19T01:23:58.913Z,27.55
2023-05-19T01:24:58.934Z,26.35
2023-05-19T01:25:58.966Z,27.75
2023-05-19T01:26:58.954Z,27.36
2023-05-19T01:27:58.966Z,27.93
2023-05-19T01:28:58.984Z,27.64
2023-05-19T01:29:58.988Z,27.04
2023-05-19T01:30:59.004Z,26.88
2023-05-19T01:31:59.073Z,26.25
2023-05-19T01:32:59.092Z,26.27
2023-05-19T01:33:59.037Z,26.92
2023-05-19T01:34:59.045Z,25.26
2023-05-19T01:35:59.071Z,25.38
2023-05-19T01:36:59.066Z,26.36
2023-05-19T01:37:59.079Z,25.80
2023-05-19T01:38:59.084Z,27.04
2023-05-19T01:39:59.115Z,27.82
2023-05-19T01:40:59.122Z,28.09
2023-05-19T01:41:59.126Z,27.85
2023-05-19T01:42:59.133Z,28.92
2023-05-19T01:43:59.152Z,29.00
2023-05-19T01:44:59.163Z,28.29
2023-05-19T01:45:59.271Z,27.27
2023-05-19T01:46:59.195Z,30.24
2023-05-19T01:47:59.388Z,26.91
2023-05-19T01:48:59.218Z,25.93
2023-05-19T01:49:59.234Z,25.63
2023-05-19T01:50:59.285Z,28.14
2023-05-19T01:51:59.261Z,27.89
2023-05-19T01:52:59.279Z,25.84
2023-05-19T01:53:59.291Z,27.48
2023-05-19T01:54:59.302Z,26.43
2023-05-19T01:55:59.322Z,27.58
2023-05-19T01:56:59.323Z,26.92
2023-05-19T01:57:59.333Z,26.25
2023-05-19T01:58:59.335Z,25.00
2023-05-19T01:59:59.357Z,28.74
2023-05-19T02:00:59.426Z,29.13
2023-05-19T02:01:59.378Z,29.59
2023-05-19T02:02:59.433Z,28.77
2023-05-19T02:03:59.472Z,27.82
2023-05-19T02:04:59.420Z,27.97
2023-05-19T02:05:59.474Z,27.07
2023-05-19T02:06:59.450Z,28.55
2023-05-19T02:07:59.464Z,28.83
2023-05-19T02:08:59.481Z,28.69
2023-05-19T02:09:59.498Z,27.33
2023-05-19T02:10:59.515Z,26.92
2023-05-19T02:11:59.542Z,28.05
2023-05-19T02:12:59.530Z,27.17
2023-05-19T02:13:59.538Z,26.82
2023-05-19T02:14:59.553Z,28.50
2023-05-19T02:15:59.583Z,26.77
2023-05-19T02:16:59.570Z,26.61
2023-05-19T02:17:59.607Z,27.71
2023-05-19T02:18:59.690Z,26.79
2023-05-19T02:19:59.645Z,28.62
2023-05-19T02:20:59.626Z,26.65
2023-05-19T02:21:59.649Z,26.51
2023-05-19T02:22:59.656Z,28.29
2023-05-19T02:23:59.671Z,26.42
2023-05-19T02:24:59.709Z,27.40
2023-05-19T02:25:59.742Z,26.02
2023-05-19T02:26:59.719Z,27.21
2023-05-19T02:27:59.790Z,28.59
2023-05-19T02:28:59.744Z,27.25
2023-05-19T02:29:59.761Z,26.79
2023-05-19T02:30:59.808Z,26.93
2023-05-19T02:31:59.878Z,27.00
2023-05-19T02:32:59.848Z,26.73
2023-05-19T02:33:59.835Z,29.36
2023-05-19T02:34:59.849Z,26.15
2023-05-19T02:35:59.894Z,27.28
2023-05-19T02:36:59.892Z,27.04
2023-05-19T02:37:59.928Z,28.66
2023-05-19T02:38:59.918Z,26.70
2023-05-19T02:39:59.951Z,27.54
2023-05-19T02:40:59.953Z,26.86
2023-05-19T02:41:59.969Z,26.59
2023-05-19T02:42:59.982Z,27.54
2023-05-19T02:44:00.018Z,30.36
2023-05-19T02:45:00.029Z,28.35
2023-05-19T02:46:00.275Z,26.70
2023-05-19T02:47:00.053Z,27.82
2023-05-19T02:48:00.140Z,27.48
2023-05-19T02:49:00.094Z,26.25
2023-05-19T02:50:00.177Z,26.65
2023-05-19T02:51:00.140Z,27.19
2023-05-19T02:52:00.153Z,28.35
2023-05-19T02:53:00.196Z,28.59
2023-05-19T02:54:00.168Z,28.30
2023-05-19T02:55:00.166Z,27.84
2023-05-19T02:56:00.182Z,26.68
2023-05-19T02:57:00.200Z,29.63
2023-05-19T02:58:00.222Z,28.58
2023-05-19T02:59:00.230Z,27.64
2023-05-19T03:00:00.249Z,27.78
2023-05-19T03:01:00.252Z,26.51
2023-05-19T03:02:00.348Z,27.93
2023-05-19T03:03:00.446Z,29.82
2023-05-19T03:04:00.458Z,29.47
2023-05-19T03:05:00.319Z,28.73
2023-05-19T03:06:00.344Z,30.97
2023-05-19T03:07:00.356Z,27.23
2023-05-19T03:08:00.431Z,26.89
2023-05-19T03:09:00.408Z,28.25
2023-05-19T03:10:00.417Z,29.58
2023-05-19T03:11:00.457Z,27.87
2023-05-19T03:12:00.441Z,27.47
2023-05-19T03:13:00.455Z,27.07
2023-05-19T03:14:00.532Z,28.84
2023-05-19T03:15:00.500Z,28.81
2023-05-19T03:16:00.526Z,30.16
2023-05-19T03:17:00.558Z,28.81
2023-05-19T03:18:00.603Z,26.78
2023-05-19T03:19:00.595Z,26.65
2023-05-19T03:20:00.563Z,27.79
2023-05-19T03:21:00.600Z,27.19
2023-05-19T03:22:00.593Z,27.11
2023-05-19T03:23:00.605Z,26.48
2023-05-19T03:24:00.647Z,29.50
2023-05-19T03:25:00.635Z,27.33
2023-05-19T03:26:00.639Z,29.27
2023-05-19T03:27:00.660Z,28.91
2023-05-19T03:28:00.674Z,28.88
2023-05-19T03:29:00.688Z,31.15
2023-05-19T03:30:00.688Z,31.76
2023-05-19T03:31:00.758Z,29.62
2023-05-19T03:32:00.749Z,28.69
2023-05-19T03:33:00.794Z,26.92
2023-05-19T03:34:00.726Z,25.90
2023-05-19T03:35:00.727Z,28.56
2023-05-19T03:36:00.770Z,26.96
2023-05-19T03:37:00.734Z,26.13
2023-05-19T03:38:00.737Z,25.23
2023-05-19T03:39:00.748Z,26.55
2023-05-19T03:40:00.811Z,27.98
2023-05-19T03:41:00.786Z,27.11
2023-05-19T03:42:00.767Z,28.41
2023-05-19T03:43:00.774Z,25.17
2023-05-19T03:44:00.767Z,25.90
2023-05-19T03:45:00.772Z,29.36
2023-05-19T03:46:00.858Z,27.54
2023-05-19T03:47:00.759Z,27.58
2023-05-19T03:48:00.787Z,28.03
2023-05-19T03:49:00.757Z,27.34
2023-05-19T03:50:00.769Z,27.95
2023-05-19T03:51:00.768Z,25.82
2023-05-19T03:52:00.738Z,28.62
2023-05-19T03:53:00.734Z,26.56
2023-05-19T03:54:00.730Z,26.94
2023-05-19T03:55:00.719Z,27.27
2023-05-19T03:56:00.726Z,27.20
2023-05-19T03:57:00.703Z,28.61
2023-05-19T03:58:00.694Z,26.40
2023-05-19T03:59:00.697Z,26.61
2023-05-19T04:00:00.692Z,27.75
2023-05-19T04:01:00.687Z,29.30
2023-05-19T04:02:00.718Z,28.95
2023-05-19T04:03:00.893Z,26.94
2023-05-19T04:04:00.698Z,27.73
2023-05-19T04:05:00.653Z,27.27
2023-05-19T04:06:00.698Z,26.56
2023-05-19T04:07:00.653Z,28.15
2023-05-19T04:08:00.639Z,27.10
2023-05-19T04:09:00.623Z,26.90
2023-05-19T04:10:00.617Z,25.74
2023-05-19T04:11:00.617Z,28.12
2023-05-19T04:12:00.621Z,26.91
2023-05-19T04:13:00.601Z,26.35
2023-05-19T04:14:00.591Z,27.82
2023-05-19T04:15:00.615Z,28.51
2023-05-19T04:16:00.688Z,26.77
2023-05-19T04:17:00.551Z,28.39
2023-05-19T04:18:00.597Z,25.88
2023-05-19T04:19:00.643Z,26.34
2023-05-19T04:20:00.521Z,27.11
2023-05-19T04:21:00.537Z,26.12
2023-05-19T04:22:00.504Z,26.58
2023-05-19T04:23:00.505Z,26.18
2023-05-19T04:24:00.512Z,28.39
2023-05-19T04:25:00.535Z,27.06
2023-05-19T04:26:00.544Z,28.66
2023-05-19T04:27:00.564Z,27.92
2023-05-19T04:28:00.637Z,28.72
2023-05-19T04:29:00.627Z,28.29
2023-05-19T04:30:00.672Z,29.18
2023-05-19T04:31:00.738Z,29.68
2023-05-19T04:32:00.723Z,27.61
2023-05-19T04:33:00.773Z,28.32
2023-05-19T04:34:00.746Z,28.76
2023-05-19T04:35:00.778Z,28.54
2023-05-19T04:36:00.826Z,27.66
2023-05-19T04:37:00.833Z,26.45
2023-05-19T04:38:00.846Z,27.66
2023-05-19T04:39:00.894Z,29.71
2023-05-19T04:40:00.939Z,28.79
2023-05-19T04:41:01.005Z,28.24
2023-05-19T04:42:00.973Z,28.99
2023-05-19T04:43:00.974Z,28.97
2023-05-19T04:44:01.019Z,28.14
2023-05-19T04:45:00.978Z,27.18
2023-05-19T04:46:01.002Z,28.90
2023-05-19T04:47:01.114Z,27.99
2023-05-19T04:48:01.086Z,27.62
2023-05-19T04:49:01.101Z,27.12
2023-05-19T04:50:01.133Z,27.78
2023-05-19T04:51:01.135Z,27.36
2023-05-19T04:52:01.130Z,28.38
2023-05-19T04:53:01.155Z,27.10
2023-05-19T04:54:01.165Z,26.14
2023-05-19T04:55:01.162Z,25.97
2023-05-19T04:56:01.216Z,26.02
2023-05-19T04:57:01.170Z,28.34
2023-05-19T04:58:01.171Z,25.56
2023-05-19T04:59:01.202Z,25.73
2023-05-19T05:00:01.237Z,26.73
2023-05-19T05:01:01.307Z,28.04
2023-05-19T05:02:01.368Z,26.43
2023-05-19T05:03:01.322Z,28.72
2023-05-19T05:04:01.322Z,26.85
2023-05-19T05:05:01.258Z,26.94
2023-05-19T05:06:01.288Z,25.46
2023-05-19T05:07:01.225Z,28.22
2023-05-19T05:08:01.222Z,25.65
2023-05-19T05:09:01.195Z,27.63
2023-05-19T05:10:01.183Z,27.41
2023-05-19T05:11:01.172Z,25.00
2023-05-19T05:12:01.169Z,26.02
2023-05-19T05:13:01.173Z,26.05
2023-05-19T05:14:01.177Z,25.98
2023-05-19T05:15:01.178Z,26.39
2023-05-19T05:16:01.213Z,25.00
2023-05-19T05:17:01.152Z,25.09
2023-05-19T05:18:01.193Z,25.80
2023-05-19T05:19:01.171Z,25.00
2023-05-19T05:20:01.191Z,26.28
2023-05-19T05:21:01.177Z,25.35
2023-05-19T05:22:01.191Z,25.70
2023-05-19T05:23:01.208Z,25.34
2023-05-19T05:24:01.205Z,25.47
2023-05-19T05:25:01.209Z,25.00
2023-05-19T05:26:01.223Z,28.41
2023-05-19T05:27:01.236Z,25.00
2023-05-19T05:28:01.268Z,26.22
2023-05-19T05:29:01.285Z,27.46
2023-05-19T05:30:01.256Z,26.76
2023-05-19T05:31:01.248Z,25.16
2023-05-19T05:32:01.301Z,27.89
2023-05-19T05:33:01.310Z,25.69
2023-05-19T05:34:01.234Z,28.39
2023-05-19T05:35:01.209Z,26.74
2023-05-19T05:36:01.209Z,26.54
2023-05-19T05:37:01.200Z,25.62
2023-05-19T05:38:01.193Z,28.26
2023-05-19T05:39:01.180Z,25.00
2023-05-19T05:40:01.202Z,27.90
2023-05-19T05:41:01.162Z,28.84
2023-05-19T05:42:01.181Z,26.76
2023-05-19T05:43:01.136Z,29.33
2023-05-19T05:44:01.150Z,25.05
2023-05-19T05:45:01.152Z,27.65
2023-05-19T05:46:01.191Z,28.91
2023-05-19T05:47:01.119Z,31.79
2023-05-19T05:48:01.423Z,29.93
2023-05-19T05:49:01.124Z,30.00
2023-05-19T05:50:01.117Z,28.75
2023-05-19T05:51:01.112Z,32.45
2023-05-19T05:52:06.203Z,30.47
2023-05-19T05:53:01.096Z,30.66
2023-05-19T05:54:01.083Z,30.72
2023-05-19T05:55:01.065Z,31.19
2023-05-19T05:56:01.051Z,29.46
2023-05-19T05:57:01.055Z,28.31
2023-05-19T05:58:01.054Z,25.00
2023-05-19T05:59:01.044Z,27.13
2023-05-19T06:00:01.032Z,25.00
2023-05-19T06:01:01.034Z,28.60
2023-05-19T06:02:01.057Z,27.23
2023-05-19T06:03:01.128Z,28.83
2023-05-19T06:04:01.007Z,30.73
2023-05-19T06:05:01.004Z,28.28
2023-05-19T06:06:01.062Z,27.92
2023-05-19T06:07:00.949Z,25.00
2023-05-19T06:08:00.888Z,28.11
2023-05-19T06:09:00.859Z,26.64
2023-05-19T06:10:00.863Z,25.00
2023-05-19T06:11:00.835Z,31.90
2023-05-19T06:12:00.800Z,33.79
2023-05-19T06:13:00.784Z,33.87
2023-05-19T06:14:00.763Z,33.58
2023-05-19T06:15:00.755Z,30.23
2023-05-19T06:16:02.011Z,29.19
2023-05-19T06:17:00.771Z,32.88
2023-05-19T06:18:00.793Z,29.00
2023-05-19T06:19:00.775Z,28.34
2023-05-19T06:20:01.786Z,26.88
2023-05-19T06:21:00.738Z,26.00
2023-05-19T06:22:00.724Z,27.89
2023-05-19T06:23:00.713Z,32.29
2023-05-19T06:24:00.705Z,33.14
2023-05-19T06:25:00.717Z,27.19
2023-05-19T06:26:00.687Z,25.00
2023-05-19T06:27:00.673Z,32.48
2023-05-19T06:28:00.666Z,29.57
2023-05-19T06:29:00.649Z,28.55
2023-05-19T06:30:00.654Z,32.17
2023-05-19T06:31:00.701Z,29.89
2023-05-19T06:32:00.626Z,28.53
2023-05-19T06:33:00.663Z,25.10
2023-05-19T06:34:00.635Z,25.00
2023-05-19T06:35:00.602Z,25.55
2023-05-19T06:36:00.629Z,27.35
2023-05-19T06:37:00.574Z,31.59
2023-05-19T06:38:00.589Z,26.80
2023-05-19T06:39:02.533Z,32.47
2023-05-19T06:40:00.521Z,34.92
2023-05-19T06:41:00.508Z,36.74
2023-05-19T06:42:00.516Z,33.61
2023-05-19T06:43:00.497Z,33.35
2023-05-19T06:44:00.434Z,37.00
2023-05-19T06:45:00.419Z,33.33
2023-05-19T06:46:00.403Z,28.12
2023-05-19T06:47:00.419Z,30.92
2023-05-19T06:48:00.439Z,33.65
2023-05-19T06:49:00.352Z,27.78
2023-05-19T06:50:00.332Z,25.99
2023-05-19T06:51:00.319Z,28.16
2023-05-19T06:52:00.325Z,34.24
2023-05-19T06:53:00.278Z,32.62
2023-05-19T06:54:00.263Z,29.18
2023-05-19T06:55:00.275Z,27.66
2023-05-19T06:56:00.560Z,27.10
2023-05-19T06:57:00.219Z,25.50
2023-05-19T06:58:00.203Z,25.36
2023-05-19T06:59:00.200Z,25.51
2023-05-19T07:00:00.199Z,25.00
2023-05-19T07:01:00.177Z,26.58
2023-05-19T07:02:00.260Z,25.00
2023-05-19T07:03:00.332Z,26.87
2023-05-19T07:04:00.286Z,25.52
2023-05-19T07:05:00.179Z,29.15
2023-05-19T07:06:00.137Z,25.00
2023-05-19T07:07:00.139Z,25.12
2023-05-19T07:08:00.193Z,25.00
2023-05-19T07:09:00.130Z,25.01
2023-05-19T07:10:00.107Z,25.98
2023-05-19T07:11:00.123Z,28.01
2023-05-19T07:12:00.081Z,26.32
2023-05-19T07:13:00.078Z,28.82
2023-05-19T07:14:00.051Z,25.04
2023-05-19T07:15:00.050Z,32.32
2023-05-19T07:16:00.100Z,25.70
2023-05-19T07:17:00.016Z,25.44
2023-05-19T07:18:00.030Z,27.29
2023-05-19T07:19:00.064Z,29.28
2023-05-19T07:19:59.984Z,28.21
2023-05-19T07:20:59.987Z,25.72
2023-05-19T07:21:59.974Z,25.49
2023-05-19T07:22:59.957Z,29.90
2023-05-19T07:23:59.989Z,25.00
2023-05-19T07:24:59.929Z,26.68
2023-05-19T07:25:59.924Z,26.24
2023-05-19T07:26:59.922Z,31.86
2023-05-19T07:27:59.920Z,33.12
2023-05-19T07:28:59.899Z,38.47
2023-05-19T07:29:59.886Z,31.87
2023-05-19T07:30:59.888Z,26.09
2023-05-19T07:31:59.914Z,30.04
2023-05-19T07:32:59.901Z,27.23
2023-05-19T07:33:59.859Z,26.19
2023-05-19T07:34:59.857Z,31.10
2023-05-19T07:35:59.845Z,30.96
2023-05-19T07:36:59.837Z,30.05
2023-05-19T07:37:59.836Z,28.32
2023-05-19T07:38:59.850Z,28.38
2023-05-19T07:39:59.948Z,29.16
2023-05-19T07:40:59.804Z,25.00
2023-05-19T07:41:59.788Z,27.69
2023-05-19T07:42:59.782Z,30.57
2023-05-19T07:43:59.768Z,28.91
2023-05-19T07:44:59.762Z,27.12
2023-05-19T07:45:59.782Z,28.19
2023-05-19T07:46:59.765Z,26.19
2023-05-19T07:47:59.758Z,25.00
2023-05-19T07:48:59.721Z,27.57
2023-05-19T07:49:59.704Z,25.00
2023-05-19T07:50:59.689Z,31.50
2023-05-19T07:51:59.679Z,35.99
2023-05-19T07:52:59.698Z,28.36
2023-05-19T07:53:59.663Z,25.46
2023-05-19T07:54:59.649Z,25.80
2023-05-19T07:55:59.677Z,30.99
2023-05-19T07:56:59.625Z,25.49
2023-05-19T07:57:59.608Z,25.10
2023-05-19T07:58:59.607Z,28.99
2023-05-19T07:59:59.573Z,26.36
2023-05-19T08:00:59.600Z,27.07
2023-05-19T08:01:59.564Z,27.49
2023-05-19T08:02:59.613Z,26.43
2023-05-19T08:03:59.797Z,27.05
2023-05-19T08:04:59.511Z,26.08
2023-05-19T08:05:59.494Z,28.75
2023-05-19T08:06:59.496Z,25.65
2023-05-19T08:07:59.504Z,32.52
2023-05-19T08:08:59.469Z,32.14
2023-05-19T08:09:59.458Z,36.01
2023-05-19T08:10:59.441Z,33.55
2023-05-19T08:11:59.464Z,32.04
2023-05-19T08:12:59.418Z,28.21
2023-05-19T08:13:59.412Z,31.86
2023-05-19T08:15:01.394Z,30.42
2023-05-19T08:15:59.453Z,31.14
2023-05-19T08:16:59.374Z,27.83
2023-05-19T08:17:59.396Z,30.12
2023-05-19T08:18:59.389Z,27.61
2023-05-19T08:19:59.326Z,26.30
2023-05-19T08:20:59.315Z,28.76
2023-05-19T08:21:59.304Z,27.41
2023-05-19T08:22:59.302Z,30.44
2023-05-19T08:23:59.303Z,25.18
2023-05-19T08:24:59.281Z,29.92
2023-05-19T08:25:59.273Z,25.15
2023-05-19T08:26:59.247Z,25.00
2023-05-19T08:27:59.249Z,25.04
2023-05-19T08:28:59.230Z,30.46
2023-05-19T08:29:59.207Z,25.00
2023-05-19T08:30:59.204Z,28.74
2023-05-19T08:31:59.199Z,30.88
2023-05-19T08:32:59.237Z,32.93
2023-05-19T08:33:59.164Z,31.67
2023-05-19T08:34:59.141Z,31.65
2023-05-19T08:35:59.133Z,32.36
2023-05-19T08:36:59.113Z,28.96
2023-05-19T08:37:59.099Z,26.33
2023-05-19T08:38:59.113Z,25.66
2023-05-19T08:39:59.076Z,26.63
2023-05-19T08:40:59.064Z,25.00
2023-05-19T08:41:59.045Z,25.34
2023-05-19T08:42:59.031Z,25.28
2023-05-19T08:43:59.044Z,26.14
2023-05-19T08:44:59.001Z,28.85
2023-05-19T08:45:58.984Z,25.67
2023-05-19T08:46:59.028Z,25.00
2023-05-19T08:47:59.046Z,32.06
2023-05-19T08:48:58.931Z,31.64
2023-05-19T08:49:58.925Z,32.12
2023-05-19T08:50:58.912Z,25.20
2023-05-19T08:51:58.889Z,31.16
2023-05-19T08:52:58.892Z,27.03
2023-05-19T08:53:58.867Z,32.39
2023-05-19T08:54:58.853Z,36.24
2023-05-19T08:55:58.851Z,30.70
2023-05-19T08:56:58.821Z,35.30
2023-05-19T08:57:58.816Z,34.71
2023-05-19T09:00:03.793Z,25.00
2023-05-19T09:01:04.786Z,25.00
2023-05-19T09:02:04.753Z,25.00
2023-05-19T09:04:03.890Z,25.00
2023-05-19T09:05:04.861Z,28.88
2023-05-19T09:06:04.851Z,26.32
2023-05-19T09:07:04.913Z,28.79
2023-05-19T09:08:04.881Z,28.29
2023-05-19T09:09:04.865Z,31.78
2023-05-19T09:10:04.871Z,29.32
2023-05-19T09:11:04.883Z,31.86
2023-05-19T09:12:04.909Z,30.95
2023-05-19T09:13:04.908Z,26.94
2023-05-19T09:14:04.921Z,25.00
2023-05-19T09:15:04.930Z,26.94
2023-05-19T09:16:05.065Z,26.21
2023-05-19T09:17:04.988Z,28.88
2023-05-19T09:18:04.982Z,25.38
2023-05-19T09:19:05.031Z,35.64
2023-05-19T09:20:05.006Z,35.58
2023-05-19T09:21:05.012Z,34.06
2023-05-19T09:22:05.044Z,31.46
2023-05-19T09:23:05.038Z,32.87
2023-05-19T09:24:05.062Z,28.55
2023-05-19T09:25:05.146Z,31.38
2023-05-19T09:26:05.070Z,29.24
2023-05-19T09:27:05.449Z,32.31
2023-05-19T09:28:05.092Z,31.56
2023-05-19T09:29:05.133Z,36.22
2023-05-19T09:30:05.128Z,32.73
2023-05-19T09:31:05.136Z,33.76
2023-05-19T09:32:05.336Z,31.26
2023-05-19T09:33:05.159Z,30.03
2023-05-19T09:34:05.162Z,27.88
2023-05-19T09:35:05.182Z,27.70
2023-05-19T09:36:05.182Z,25.97
2023-05-19T09:37:05.201Z,26.16
2023-05-19T09:38:05.194Z,29.30
2023-05-19T09:39:05.206Z,25.20
2023-05-19T09:40:05.235Z,31.46
2023-05-19T09:41:05.216Z,28.80
2023-05-19T09:42:05.226Z,29.88
2023-05-19T09:43:05.239Z,26.45
2023-05-19T09:44:05.239Z,26.33
2023-05-19T09:45:05.264Z,25.73
2023-05-19T09:46:05.313Z,28.29
2023-05-19T09:47:05.272Z,32.31
2023-05-19T09:48:05.455Z,30.79
2023-05-19T09:49:05.294Z,27.17
2023-05-19T09:50:05.312Z,31.12
2023-05-19T09:51:05.360Z,29.19
2023-05-19T09:52:05.317Z,29.49
2023-05-19T09:53:05.318Z,27.26
2023-05-19T09:54:05.345Z,35.37
2023-05-19T09:55:05.375Z,30.82
2023-05-19T09:56:05.363Z,39.13
2023-05-19T09:57:07.744Z,39.96
2023-05-19T09:58:05.352Z,40.19
2023-05-19T09:59:05.356Z,38.33
2023-05-19T10:00:05.350Z,44.84
2023-05-19T10:01:05.863Z,50.84
2023-05-19T10:02:05.358Z,63.49
2023-05-19T10:03:05.384Z,55.33
2023-05-19T10:04:06.162Z,54.73
2023-05-19T10:05:05.379Z,63.23
2023-05-19T10:06:05.327Z,78.26
2023-05-19T10:07:05.333Z,68.04
2023-05-19T10:08:05.318Z,75.58
2023-05-19T10:09:05.294Z,77.39
2023-05-19T10:10:05.295Z,64.43
2023-05-19T10:11:05.305Z,65.60
2023-05-19T10:12:05.298Z,72.07
2023-05-19T10:13:05.296Z,70.69
2023-05-19T10:14:05.296Z,78.17
2023-05-19T10:15:05.305Z,74.21
2023-05-19T10:16:05.315Z,63.66
2023-05-19T10:17:05.438Z,60.84
2023-05-19T10:18:05.353Z,58.49
2023-05-19T10:19:05.538Z,56.51
2023-05-19T10:20:05.340Z,75.32
2023-05-19T10:21:05.310Z,80.46
2023-05-19T10:22:05.329Z,63.73
2023-05-19T10:23:05.369Z,68.11
2023-05-19T10:24:05.414Z,66.05
2023-05-19T10:25:05.465Z,67.02
2023-05-19T10:26:05.529Z,76.25
2023-05-19T10:27:05.616Z,82.39
2023-05-19T10:28:05.633Z,75.85
2023-05-19T10:29:05.683Z,92.69
2023-05-19T10:30:05.723Z,75.46
2023-05-19T10:31:05.763Z,64.22
2023-05-19T10:32:05.952Z,56.03
2023-05-19T10:33:05.973Z,70.21
2023-05-19T10:34:05.985Z,71.39
2023-05-19T10:35:06.053Z,75.35
2023-05-19T10:36:06.206Z,72.93
2023-05-19T10:37:06.205Z,67.04
2023-05-19T10:38:06.255Z,59.43
2023-05-19T10:39:06.354Z,55.55
2023-05-19T10:40:06.397Z,55.93
2023-05-19T10:41:06.459Z,56.24
2023-05-19T10:42:06.530Z,46.95
2023-05-19T10:43:06.609Z,45.21
2023-05-19T10:44:06.647Z,47.77
2023-05-19T10:45:06.720Z,44.20
2023-05-19T10:46:06.773Z,47.85
2023-05-19T10:47:06.925Z,49.29
2023-05-19T10:48:06.886Z,54.61
2023-05-19T10:49:06.915Z,57.06
2023-05-19T10:50:07.011Z,59.25
2023-05-19T10:51:07.027Z,51.40
2023-05-19T10:52:07.151Z,60.28
2023-05-19T10:53:07.113Z,67.46
2023-05-19T10:54:07.168Z,60.33
2023-05-19T10:55:07.223Z,59.69
2023-05-19T10:56:07.280Z,48.79
2023-05-19T10:57:07.336Z,67.60
2023-05-19T10:58:07.415Z,69.41
2023-05-19T10:59:07.456Z,68.78
2023-05-19T11:00:07.509Z,76.70
2023-05-19T11:01:07.574Z,75.92
2023-05-19T11:02:07.958Z,69.31
2023-05-19T11:03:07.919Z,72.43
2023-05-19T11:04:07.857Z,78.67
2023-05-19T11:05:07.754Z,76.10
2023-05-19T11:06:07.767Z,69.61
2023-05-19T11:07:07.834Z,70.18
2023-05-19T11:08:07.895Z,75.69
2023-05-19T11:09:07.894Z,83.38
2023-05-19T11:10:07.901Z,87.99
2023-05-19T11:11:07.946Z,90.85
2023-05-19T11:12:08.077Z,89.70
2023-05-19T11:13:08.084Z,97.45
2023-05-19T11:14:08.137Z,90.92
2023-05-19T11:15:08.186Z,80.83
2023-05-19T11:16:08.269Z,75.30
2023-05-19T11:17:08.344Z,94.39
2023-05-19T11:18:08.398Z,81.03
2023-05-19T11:19:08.408Z,71.03
2023-05-19T11:20:08.434Z,68.55
2023-05-19T11:21:08.559Z,68.98
2023-05-19T11:22:08.554Z,72.42
2023-05-19T11:23:09.805Z,79.07
2023-05-19T11:24:08.672Z,71.54
2023-05-19T11:25:08.747Z,71.26
2023-05-19T11:26:08.824Z,72.09
2023-05-19T11:27:08.900Z,77.81
2023-05-19T11:28:08.944Z,70.85
2023-05-19T11:29:08.993Z,68.31
2023-05-19T11:30:09.042Z,57.68
2023-05-19T11:31:09.066Z,56.92
2023-05-19T11:32:09.152Z,62.86
2023-05-19T11:33:09.257Z,69.57
2023-05-19T11:34:09.212Z,75.94
2023-05-19T11:35:09.268Z,73.81
2023-05-19T11:36:09.326Z,75.06
2023-05-19T11:37:09.400Z,71.59
2023-05-19T11:38:09.452Z,59.95
2023-05-19T11:39:09.559Z,53.78
2023-05-19T11:40:09.614Z,53.74
2023-05-19T11:41:09.581Z,59.18
2023-05-19T11:42:09.650Z,74.23
2023-05-19T11:43:09.719Z,75.61
2023-05-19T11:44:09.745Z,70.46
2023-05-19T11:45:09.785Z,69.35
2023-05-19T11:46:09.875Z,69.58
2023-05-19T11:47:09.854Z,74.74
2023-05-19T11:48:09.902Z,59.85
2023-05-19T11:49:09.941Z,51.13
2023-05-19T11:50:09.951Z,61.33
2023-05-19T11:51:09.981Z,60.39
2023-05-19T11:52:09.996Z,59.06
2023-05-19T11:53:10.010Z,59.20
2023-05-19T11:54:10.057Z,59.91
2023-05-19T11:55:10.139Z,62.03
2023-05-19T11:56:10.098Z,65.98
2023-05-19T11:57:10.126Z,62.02
2023-05-19T11:58:10.125Z,60.14
2023-05-19T11:59:10.152Z,54.28
2023-05-19T12:00:10.200Z,54.30
2023-05-19T12:01:10.223Z,55.83
2023-05-19T12:02:10.276Z,51.07
2023-05-19T12:03:10.691Z,51.69
2023-05-19T12:04:10.296Z,50.67
2023-05-19T12:05:10.388Z,43.74
2023-05-19T12:06:10.421Z,53.34
2023-05-19T12:07:10.437Z,42.35
2023-05-19T12:08:10.495Z,48.03
2023-05-19T12:09:10.503Z,58.44
2023-05-19T12:10:10.749Z,58.00
2023-05-19T12:11:10.630Z,63.46
2023-05-19T12:12:10.652Z,69.37
2023-05-19T12:13:11.033Z,59.19
2023-05-19T12:14:10.740Z,56.92
2023-05-19T12:15:10.778Z,54.72
2023-05-19T12:16:10.859Z,53.31
2023-05-19T12:17:10.855Z,51.39
2023-05-19T12:18:10.956Z,53.56
2023-05-19T12:19:10.978Z,48.00
2023-05-19T12:20:11.010Z,50.49
2023-05-19T12:21:11.050Z,55.48
2023-05-19T12:22:11.068Z,59.77
2023-05-19T12:23:11.162Z,53.34
2023-05-19T12:24:11.225Z,59.07
2023-05-19T12:25:11.280Z,54.84
2023-05-19T12:26:11.300Z,57.94
2023-05-19T12:27:11.386Z,54.62
2023-05-19T12:28:11.379Z,55.76
2023-05-19T12:29:11.419Z,51.49
2023-05-19T12:30:11.437Z,55.12
2023-05-19T12:31:11.595Z,52.94
2023-05-19T12:32:11.550Z,51.61
2023-05-19T12:33:11.597Z,51.90
2023-05-19T12:34:11.558Z,48.44
2023-05-19T12:35:11.551Z,51.24
2023-05-19T12:36:11.582Z,50.08
2023-05-19T12:37:11.604Z,43.49
2023-05-19T12:38:11.626Z,47.01
2023-05-19T12:39:11.653Z,47.77
2023-05-19T12:40:11.666Z,51.47
2023-05-19T12:41:11.693Z,50.32
2023-05-19T12:42:11.721Z,50.10
2023-05-19T12:43:11.870Z,51.29
2023-05-19T12:44:11.780Z,61.45
2023-05-19T12:45:11.832Z,58.90
2023-05-19T12:46:11.953Z,59.14
2023-05-19T12:47:11.894Z,57.11
2023-05-19T12:48:12.026Z,53.94
2023-05-19T12:49:11.956Z,60.90
2023-05-19T12:50:11.998Z,64.29
2023-05-19T12:51:12.032Z,67.66
2023-05-19T12:52:13.226Z,65.70
2023-05-19T12:53:12.146Z,67.86
2023-05-19T12:54:12.170Z,60.11
2023-05-19T12:55:12.407Z,60.28